Time;durP1;ratioP1;P1;durP2;ratioP2;P2;SDS_P1;SDS_P2;PMS_P1;PMS_P2;Temp;Humidity;BMP_temperature;BMP_pressure;BME280_temperature;BME280_humidity;BME280_pressure;Samples;Min_cycle;Max_cycle;Signal;HPM_P1;HPM_P2
2022/12/06 00:01:08;;;;;;;0.65;0.50;;;7.50;84.60;;;;;;4990863;28;20560;-64
2022/12/06 00:03:35;;;;;;;0.73;0.45;;;7.60;84.60;;;;;;4990637;28;20136;-63
2022/12/06 00:06:10;;;;;;;0.98;0.88;;;7.60;84.60;;;;;;4988709;28;20064;-64
2022/12/06 00:08:38;;;;;;;1.27;0.60;;;7.60;84.50;;;;;;4989186;28;20351;-66
2022/12/06 00:11:09;;;;;;;0.70;0.68;;;7.60;84.40;;;;;;4989290;28;20026;-64
2022/12/06 00:13:35;;;;;;;0.70;0.70;;;7.70;84.40;;;;;;4989927;28;20030;-64
2022/12/06 00:16:03;;;;;;;1.20;0.95;;;7.70;84.40;;;;;;4990686;28;20038;-64
2022/12/06 00:18:31;;;;;;;0.65;0.63;;;7.70;84.30;;;;;;5022498;28;20038;-64
2022/12/06 00:21:24;;;;;;;0.60;0.60;;;7.70;84.30;;;;;;4990870;28;20066;-64
2022/12/06 00:24:05;;;;;;;1.58;0.85;;;7.70;84.30;;;;;;4990509;28;20046;-64
2022/12/06 00:26:33;;;;;;;0.63;0.40;;;7.70;84.30;;;;;;4987907;28;20033;-63
2022/12/06 00:29:00;;;;;;;0.57;0.57;;;7.70;84.40;;;;;;4990937;28;20134;-63
2022/12/06 00:31:28;;;;;;;0.65;0.65;;;7.70;84.40;;;;;;4990125;28;20029;-66
2022/12/06 00:33:54;;;;;;;0.63;0.63;;;7.70;84.50;;;;;;4989683;28;20034;-64
2022/12/06 00:36:28;;;;;;;0.98;0.80;;;7.60;84.40;;;;;;5006401;28;20037;-64
2022/12/06 00:38:55;;;;;;;0.57;0.57;;;7.70;84.40;;;;;;4991689;28;20026;-65
2022/12/06 00:41:23;;;;;;;1.35;0.98;;;7.70;84.50;;;;;;4989842;28;20478;-65
2022/12/06 00:43:50;;;;;;;0.82;0.70;;;7.70;84.40;;;;;;4989503;28;20040;-64
2022/12/06 00:46:19;;;;;;;2.35;1.02;;;7.70;84.40;;;;;;4990408;28;20453;-65
2022/12/06 00:48:46;;;;;;;0.95;0.68;;;7.70;84.40;;;;;;4991644;28;20015;-67
2022/12/06 00:51:13;;;;;;;0.60;0.60;;;7.70;84.50;;;;;;4990314;28;20030;-65
2022/12/06 00:53:39;;;;;;;1.33;0.73;;;7.70;84.50;;;;;;4987625;28;20034;-65
2022/12/06 00:56:05;;;;;;;1.77;0.77;;;7.70;84.50;;;;;;4988701;28;20077;-65
2022/12/06 00:58:31;;;;;;;1.15;0.82;;;7.70;84.50;;;;;;4989795;28;20034;-63
2022/12/06 01:01:22;;;;;;;1.10;1.02;;;7.60;84.40;;;;;;4989081;28;20609;-60
2022/12/06 01:03:53;;;;;;;0.82;0.70;;;7.70;84.40;;;;;;4995340;28;20042;-60
2022/12/06 01:06:21;;;;;;;0.88;0.63;;;7.60;84.50;;;;;;4987776;28;20058;-59
2022/12/06 01:08:48;;;;;;;1.65;1.17;;;7.70;84.60;;;;;;4989302;28;20069;-59
2022/12/06 01:11:15;;;;;;;1.10;0.75;;;7.70;84.50;;;;;;4987574;28;20062;-59
2022/12/06 01:13:42;;;;;;;0.70;0.70;;;7.70;84.50;;;;;;4987448;28;20498;-60
2022/12/06 01:16:11;;;;;;;1.35;0.80;;;7.70;84.50;;;;;;4988522;28;20084;-59
2022/12/06 01:18:37;;;;;;;0.40;0.40;;;7.70;84.50;;;;;;4989867;28;20069;-62
2022/12/06 01:21:08;;;;;;;0.95;0.73;;;7.60;84.50;;;;;;4990024;28;20043;-59
2022/12/06 01:23:34;;;;;;;2.97;1.15;;;7.70;84.60;;;;;;4989762;28;20022;-58
2022/12/06 01:25:59;;;;;;;0.98;0.90;;;7.70;84.60;;;;;;4988780;28;20022;-59
2022/12/06 01:28:25;;;;;;;1.42;1.33;;;7.60;84.50;;;;;;4989660;28;20030;-59
2022/12/06 01:30:51;;;;;;;0.73;0.70;;;7.60;84.50;;;;;;4986859;28;20031;-60
2022/12/06 01:33:17;;;;;;;1.50;1.10;;;7.60;84.50;;;;;;4989565;28;20034;-60
2022/12/06 01:35:42;;;;;;;1.25;1.10;;;7.60;84.60;;;;;;5020347;28;20038;-59
2022/12/06 01:38:09;;;;;;;1.95;0.93;;;7.60;84.60;;;;;;4993074;28;20038;-58
2022/12/06 01:40:43;;;;;;;1.13;1.00;;;7.70;85.20;;;;;;4993576;28;20033;-58
2022/12/06 01:43:33;;;;;;;1.70;0.80;;;7.70;84.60;;;;;;4994024;28;20039;-59
2022/12/06 01:46:21;;;;;;;2.45;1.00;;;7.60;84.60;;;;;;4992556;28;20089;-59
2022/12/06 01:48:49;;;;;;;1.55;1.05;;;7.60;84.70;;;;;;4993154;28;20376;-59
2022/12/06 01:51:16;;;;;;;1.95;0.70;;;7.60;84.70;;;;;;4992715;28;20645;-59
2022/12/06 01:53:43;;;;;;;1.48;1.10;;;7.60;84.70;;;;;;4996322;28;20097;-60
2022/12/06 01:56:09;;;;;;;0.80;0.80;;;7.60;84.60;;;;;;4989592;28;20050;-60
2022/12/06 01:58:39;;;;;;;1.83;0.90;;;7.60;84.60;;;;;;4993407;28;20038;-59
2022/12/06 02:01:08;;;;;;;2.22;0.68;;;7.70;84.70;;;;;;4990549;28;20389;-59
2022/12/06 02:03:34;;;;;;;2.63;1.42;;;7.60;84.60;;;;;;4992195;28;20030;-59
2022/12/06 02:06:04;;;;;;;2.58;1.17;;;7.60;84.60;;;;;;4993587;28;20036;-60
2022/12/06 02:08:31;;;;;;;0.60;0.60;;;7.60;84.70;;;;;;4991337;28;20033;-60
2022/12/06 02:11:00;;;;;;;1.55;1.20;;;7.60;84.80;;;;;;4991026;28;20031;-60
2022/12/06 02:13:26;;;;;;;1.15;1.02;;;7.60;84.80;;;;;;4992385;28;20065;-60
2022/12/06 02:15:57;;;;;;;0.95;0.93;;;7.60;84.80;;;;;;4992362;28;20038;-60
2022/12/06 02:18:50;;;;;;;1.23;0.90;;;7.60;84.70;;;;;;4991577;28;20030;-59
2022/12/06 02:21:47;;;;;;;1.38;1.13;;;7.60;84.60;;;;;;4992565;28;20353;-59
2022/12/06 02:24:25;;;;;;;8.77;1.13;;;7.70;84.70;;;;;;4991400;28;20508;-59
2022/12/06 02:27:38;;;;;;;1.65;1.30;;;7.60;84.70;;;;;;4991666;28;20073;-59
2022/12/06 02:30:10;;;;;;;2.42;1.42;;;7.70;84.70;;;;;;4994936;28;20042;-59
2022/12/06 02:32:50;;;;;;;0.93;0.88;;;7.60;84.90;;;;;;4993149;28;20031;-60
2022/12/06 02:35:31;;;;;;;0.88;0.73;;;7.60;84.80;;;;;;4992869;28;20022;-59
2022/12/06 02:38:06;;;;;;;1.80;1.00;;;7.60;84.70;;;;;;4991570;28;20042;-59
2022/12/06 02:40:38;;;;;;;1.05;0.98;;;7.60;84.80;;;;;;4993273;28;20110;-59
2022/12/06 02:43:18;;;;;;;1.60;1.17;;;7.60;84.80;;;;;;4991986;28;20461;-59
2022/12/06 02:45:50;;;;;;;1.75;1.02;;;7.70;84.70;;;;;;4990772;28;20045;-59
2022/12/06 02:48:17;;;;;;;1.25;1.10;;;7.70;84.70;;;;;;4991872;28;20026;-59
2022/12/06 02:50:49;;;;;;;0.60;0.60;;;7.70;84.70;;;;;;4990719;28;20428;-59
2022/12/06 02:53:18;;;;;;;1.20;1.10;;;7.70;84.70;;;;;;4993376;28;20026;-59
2022/12/06 02:55:45;;;;;;;1.25;0.98;;;7.70;84.70;;;;;;4993512;28;20462;-60
2022/12/06 02:58:11;;;;;;;7.38;0.98;;;7.70;84.70;;;;;;4993378;28;20485;-59
2022/12/06 03:00:53;;;;;;;2.75;1.70;;;7.70;84.70;;;;;;4992477;28;20038;-59
2022/12/06 03:03:46;;;;;;;1.65;0.90;;;7.70;84.60;;;;;;4992073;28;20029;-59
2022/12/06 03:06:33;;;;;;;6.00;1.88;;;7.70;84.70;;;;;;4991271;28;20026;-59
2022/12/06 03:09:04;;;;;;;1.38;0.95;;;7.70;84.70;;;;;;4994283;28;20069;-59
2022/12/06 03:11:44;;;;;;;2.07;0.77;;;7.70;84.70;;;;;;4991244;28;20026;-60
2022/12/06 03:14:17;;;;;;;2.15;1.38;;;7.70;84.70;;;;;;4990101;28;20022;-60
2022/12/06 03:17:05;;;;;;;0.82;0.82;;;7.70;84.70;;;;;;4992002;28;20041;-59
2022/12/06 03:19:32;;;;;;;1.40;1.30;;;7.70;84.50;;;;;;4992190;28;20045;-59
2022/12/06 03:22:13;;;;;;;2.30;1.17;;;7.70;84.70;;;;;;4990024;28;20085;-64
2022/12/06 03:24:41;;;;;;;3.92;1.67;;;7.70;84.70;;;;;;4992972;28;20026;-64
2022/12/06 03:27:12;;;;;;;1.70;1.30;;;7.70;84.60;;;;;;4990991;28;20026;-60
2022/12/06 03:29:48;;;;;;;3.10;1.23;;;7.70;84.60;;;;;;4990821;28;20018;-60
2022/12/06 03:32:18;;;;;;;1.23;1.13;;;7.70;84.60;;;;;;4989507;28;20022;-60
2022/12/06 03:34:47;;;;;;;2.42;1.13;;;7.60;84.70;;;;;;4991183;28;20019;-59
2022/12/06 03:37:17;;;;;;;4.32;1.35;;;7.70;84.70;;;;;;4990205;28;20030;-60
2022/12/06 03:39:48;;;;;;;0.98;0.95;;;7.70;84.70;;;;;;4990853;28;20037;-60
2022/12/06 03:42:15;;;;;;;1.30;1.00;;;7.70;84.70;;;;;;4989565;28;20113;-60
2022/12/06 03:44:41;;;;;;;1.80;1.17;;;7.70;84.70;;;;;;4990075;28;20054;-60
2022/12/06 03:47:43;;;;;;;1.38;0.85;;;7.60;84.70;;;;;;4989128;28;20027;-65
2022/12/06 03:50:32;;;;;;;1.48;1.17;;;7.70;84.60;;;;;;4990313;28;20026;-65
2022/12/06 03:53:00;;;;;;;3.08;1.45;;;7.60;84.70;;;;;;4991331;28;20116;-65
2022/12/06 03:55:25;;;;;;;2.67;1.80;;;7.60;84.80;;;;;;4988198;28;20026;-65
2022/12/06 03:57:51;;;;;;;1.65;1.27;;;7.60;84.80;;;;;;4990358;28;20053;-60
2022/12/06 04:00:18;;;;;;;3.28;1.20;;;7.60;84.80;;;;;;4989017;28;20034;-64
2022/12/06 04:02:44;;;;;;;1.98;1.02;;;7.60;84.80;;;;;;4988547;28;20039;-65
2022/12/06 04:05:10;;;;;;;1.60;1.30;;;7.60;84.80;;;;;;4990777;28;20034;-65
2022/12/06 04:07:35;;;;;;;1.83;1.25;;;7.60;84.80;;;;;;4990696;28;20038;-65
2022/12/06 04:10:02;;;;;;;1.85;1.27;;;7.50;84.90;;;;;;4990174;28;20125;-65
2022/12/06 04:15:14;;;;;;;2.30;1.27;;;7.50;84.90;;;;;;4988906;28;20033;-65
2022/12/06 04:20:27;;;;;;;2.25;1.40;;;7.50;85.00;;;;;;4990658;28;20449;-64
2022/12/06 04:23:02;;;;;;;0.65;0.65;;;7.50;85.00;;;;;;4992288;28;20081;-60
2022/12/06 04:25:32;;;;;;;1.70;1.30;;;7.60;85.00;;;;;;4989655;28;20053;-59
2022/12/06 04:38:56;;;;;;;1.77;1.00;;;7.50;84.90;;;;;;4990252;28;20100;-59
2022/12/06 04:44:06;;;;;;;2.50;1.13;;;7.50;85.00;;;;;;4990663;28;20037;-59
2022/12/06 04:46:32;;;;;;;1.38;1.20;;;7.50;84.90;;;;;;4988253;28;20054;-59
2022/12/06 04:48:58;;;;;;;1.33;0.88;;;7.50;84.90;;;;;;4989933;28;20133;-59
2022/12/06 04:51:24;;;;;;;1.30;1.17;;;7.50;84.90;;;;;;4989503;28;20114;-60
2022/12/06 04:53:50;;;;;;;1.70;1.20;;;7.50;84.90;;;;;;4988092;28;20058;-59
2022/12/06 04:56:16;;;;;;;0.77;0.68;;;7.50;84.90;;;;;;4989442;28;20043;-59
2022/12/06 04:58:42;;;;;;;0.95;0.88;;;7.50;84.90;;;;;;4990453;28;20109;-59
2022/12/06 05:01:08;;;;;;;2.78;1.33;;;7.50;85.00;;;;;;4989040;28;20038;-59
2022/12/06 05:03:34;;;;;;;2.58;1.25;;;7.40;84.90;;;;;;4989951;28;20033;-59
2022/12/06 05:06:00;;;;;;;2.10;1.25;;;7.40;85.00;;;;;;4987684;28;20031;-59
2022/12/06 05:08:26;;;;;;;1.02;0.93;;;7.40;85.20;;;;;;4988872;28;20026;-59
2022/12/06 05:10:52;;;;;;;1.08;0.80;;;7.40;85.10;;;;;;4988329;28;20088;-59
2022/12/06 05:13:19;;;;;;;1.20;0.80;;;7.40;85.10;;;;;;4990012;28;20696;-59
2022/12/06 05:15:57;;;;;;;0.80;0.80;;;7.50;85.00;;;;;;4988600;28;20137;-59
2022/12/06 05:18:23;;;;;;;1.05;1.00;;;7.50;84.90;;;;;;4988768;28;20026;-59
2022/12/06 05:20:50;;;;;;;1.00;0.88;;;7.50;84.90;;;;;;4990010;28;20054;-59
2022/12/06 05:23:16;;;;;;;2.15;1.50;;;7.50;84.90;;;;;;4990123;28;20049;-60
2022/12/06 05:25:42;;;;;;;2.38;0.93;;;7.50;84.80;;;;;;4988384;28;20035;-59
2022/12/06 05:28:08;;;;;;;1.17;0.82;;;7.40;84.80;;;;;;4987226;28;20027;-59
2022/12/06 05:30:40;;;;;;;1.92;1.02;;;7.40;84.90;;;;;;4989041;28;20025;-59
2022/12/06 05:33:06;;;;;;;2.08;1.08;;;7.50;85.00;;;;;;4989431;28;20061;-59
2022/12/06 05:35:32;;;;;;;2.05;1.23;;;7.40;84.90;;;;;;4988261;28;20507;-59
2022/12/06 05:37:57;;;;;;;1.30;1.02;;;7.40;85.00;;;;;;4991985;28;20038;-60
2022/12/06 05:40:23;;;;;;;1.88;1.42;;;7.40;85.00;;;;;;4987970;28;20089;-60
2022/12/06 05:42:49;;;;;;;1.85;1.23;;;7.40;85.00;;;;;;4988593;28;20474;-59
2022/12/06 05:45:14;;;;;;;0.95;0.68;;;7.30;85.10;;;;;;4987119;28;20038;-60
2022/12/06 05:47:40;;;;;;;4.13;1.02;;;7.30;85.10;;;;;;4985767;28;20310;-60
2022/12/06 05:50:07;;;;;;;1.92;1.20;;;7.30;85.10;;;;;;4989145;28;20074;-59
2022/12/06 05:52:32;;;;;;;2.92;1.20;;;7.30;85.00;;;;;;4990052;28;20117;-64
2022/12/06 05:54:58;;;;;;;0.98;0.93;;;7.30;85.00;;;;;;4988835;28;20117;-60
2022/12/06 05:57:24;;;;;;;1.95;1.13;;;7.30;85.00;;;;;;4988895;28;20478;-59
2022/12/06 05:59:50;;;;;;;0.90;0.90;;;7.30;85.00;;;;;;4990014;28;20034;-59
2022/12/06 06:02:15;;;;;;;1.52;0.98;;;7.30;85.10;;;;;;4989774;28;20036;-59
2022/12/06 06:04:41;;;;;;;0.77;0.77;;;7.30;85.10;;;;;;4982252;28;20071;-60
2022/12/06 06:07:07;;;;;;;1.50;0.93;;;7.30;85.10;;;;;;4984526;28;20015;-60
2022/12/06 06:09:32;;;;;;;3.38;1.50;;;7.20;85.00;;;;;;4980569;28;20033;-59
2022/12/06 06:11:58;;;;;;;1.25;0.80;;;7.20;85.10;;;;;;4981524;28;20096;-59
2022/12/06 06:14:24;;;;;;;1.33;0.80;;;7.20;85.20;;;;;;4982365;28;20092;-59
2022/12/06 06:16:50;;;;;;;2.15;0.80;;;7.20;85.20;;;;;;4988857;28;20034;-59
2022/12/06 06:19:16;;;;;;;1.30;1.02;;;7.20;85.10;;;;;;4989460;28;20038;-59
2022/12/06 06:21:42;;;;;;;0.68;0.60;;;7.30;85.10;;;;;;4988139;28;20335;-58
2022/12/06 06:24:08;;;;;;;2.55;0.98;;;7.20;85.00;;;;;;4990754;28;20069;-59
2022/12/06 06:26:34;;;;;;;3.05;1.13;;;7.30;85.10;;;;;;4991789;28;20034;-60
2022/12/06 06:28:59;;;;;;;2.38;1.15;;;7.20;85.10;;;;;;4993116;28;20058;-58
2022/12/06 06:31:25;;;;;;;0.47;0.47;;;7.20;85.10;;;;;;4992748;28;20121;-58
2022/12/06 06:33:51;;;;;;;1.83;1.00;;;7.20;85.20;;;;;;4993018;28;20050;-58
2022/12/06 06:36:16;;;;;;;1.02;0.73;;;7.20;85.10;;;;;;4992621;28;20031;-57
2022/12/06 06:38:42;;;;;;;1.05;0.80;;;7.30;85.10;;;;;;4989180;28;20370;-57
2022/12/06 06:41:07;;;;;;;1.88;1.02;;;7.20;85.00;;;;;;4990200;28;20096;-58
2022/12/06 06:43:33;;;;;;;1.80;0.73;;;7.20;85.10;;;;;;4986250;28;20383;-58
2022/12/06 06:46:01;;;;;;;3.25;1.30;;;7.20;85.10;;;;;;4982196;28;20137;-57
2022/12/06 06:48:29;;;;;;;2.25;1.20;;;7.20;85.10;;;;;;4989188;28;20033;-57
2022/12/06 06:51:00;;;;;;;1.13;0.60;;;7.20;85.20;;;;;;4992711;28;20034;-58
2022/12/06 06:53:26;;;;;;;1.95;1.15;;;7.20;85.20;;;;;;4991295;28;20413;-58
2022/12/06 06:55:52;;;;;;;1.65;1.05;;;7.20;85.20;;;;;;4987633;28;20041;-58
2022/12/06 06:58:18;;;;;;;0.93;0.82;;;7.30;85.20;;;;;;4986386;28;20121;-57
2022/12/06 07:00:44;;;;;;;1.02;0.85;;;7.30;85.20;;;;;;4988112;28;20157;-58
2022/12/06 07:03:14;;;;;;;1.58;0.98;;;7.20;85.10;;;;;;4991159;28;20057;-57
2022/12/06 07:05:42;;;;;;;2.72;1.10;;;7.30;85.20;;;;;;5020872;28;20038;-57
2022/12/06 07:08:08;;;;;;;2.45;0.80;;;7.30;85.20;;;;;;4991363;28;20019;-59
2022/12/06 07:10:34;;;;;;;1.92;1.00;;;7.20;85.10;;;;;;4989051;28;20041;-58
2022/12/06 07:13:00;;;;;;;3.50;1.45;;;7.30;85.10;;;;;;4988760;28;20533;-59
2022/12/06 07:15:26;;;;;;;1.30;1.00;;;7.20;85.10;;;;;;4987761;28;20489;-59
2022/12/06 07:17:52;;;;;;;1.88;1.20;;;7.20;85.10;;;;;;4990154;28;20065;-59
2022/12/06 07:20:18;;;;;;;1.08;0.85;;;7.20;85.10;;;;;;4990872;28;20417;-59
2022/12/06 07:22:45;;;;;;;2.25;1.27;;;7.30;85.10;;;;;;4992201;28;20027;-59
2022/12/06 07:25:12;;;;;;;1.45;1.17;;;7.20;85.10;;;;;;4989959;28;20497;-59
2022/12/06 07:27:38;;;;;;;1.20;0.88;;;7.30;85.20;;;;;;4989827;28;20022;-58
2022/12/06 07:30:05;;;;;;;2.60;0.90;;;7.20;85.10;;;;;;4988976;28;20029;-58
2022/12/06 07:32:35;;;;;;;1.25;0.85;;;7.30;85.20;;;;;;4990909;28;20105;-58
2022/12/06 07:35:02;;;;;;;1.05;0.95;;;7.30;85.20;;;;;;4990075;28;20386;-59
2022/12/06 07:37:27;;;;;;;2.45;1.42;;;7.20;85.10;;;;;;4992749;28;20030;-58
2022/12/06 07:39:53;;;;;;;4.32;1.20;;;7.20;85.10;;;;;;4990976;28;20034;-59
2022/12/06 07:45:06;;;;;;;1.70;1.17;;;7.20;85.20;;;;;;4990404;28;20049;-58
2022/12/06 07:47:36;;;;;;;2.22;1.25;;;7.20;85.20;;;;;;4993416;28;20384;-60
2022/12/06 07:50:04;;;;;;;1.00;0.88;;;7.20;85.10;;;;;;4991799;28;20038;-58
2022/12/06 07:52:32;;;;;;;0.85;0.80;;;7.20;85.10;;;;;;4990926;28;20026;-59
2022/12/06 07:54:59;;;;;;;0.70;0.70;;;7.20;85.10;;;;;;4989185;28;20500;-58
2022/12/06 07:57:25;;;;;;;1.02;0.68;;;7.20;85.10;;;;;;4989924;28;20030;-58
2022/12/06 07:59:50;;;;;;;3.33;1.48;;;7.20;85.20;;;;;;4991269;28;20026;-56
2022/12/06 08:02:18;;;;;;;1.30;1.20;;;7.20;85.30;;;;;;4989441;28;20026;-56
2022/12/06 08:04:44;;;;;;;1.10;1.00;;;7.20;85.30;;;;;;4990744;28;20026;-56
2022/12/06 08:07:10;;;;;;;0.90;0.68;;;7.20;85.30;;;;;;4989131;28;20026;-59
2022/12/06 08:09:35;;;;;;;0.80;0.80;;;7.20;85.20;;;;;;4990545;28;20434;-58
2022/12/06 08:12:01;;;;;;;2.85;0.90;;;7.30;85.20;;;;;;4990846;28;20402;-59
2022/12/06 08:14:27;;;;;;;1.77;1.00;;;7.30;85.10;;;;;;4990690;28;20137;-59
2022/12/06 08:16:54;;;;;;;1.08;0.80;;;7.30;85.00;;;;;;4990272;28;20034;-59
2022/12/06 08:19:19;;;;;;;1.10;0.82;;;7.30;85.00;;;;;;4989464;28;20038;-59
2022/12/06 08:21:46;;;;;;;1.20;1.10;;;7.30;85.00;;;;;;4990466;28;20512;-59
2022/12/06 08:24:11;;;;;;;1.80;1.23;;;7.30;85.60;;;;;;4989698;28;20029;-58
2022/12/06 08:26:37;;;;;;;1.08;0.93;;;7.30;84.90;;;;;;4989853;28;20026;-58
2022/12/06 08:29:04;;;;;;;1.75;0.90;;;7.30;84.80;;;;;;5022698;28;20054;-59
2022/12/06 08:31:30;;;;;;;2.83;0.95;;;7.30;84.90;;;;;;4988476;28;20019;-59
2022/12/06 08:33:57;;;;;;;1.00;0.90;;;7.30;85.00;;;;;;4990227;28;20041;-59
2022/12/06 08:36:24;;;;;;;2.38;1.35;;;7.30;85.00;;;;;;4990913;28;20493;-59
2022/12/06 08:38:51;;;;;;;0.68;0.63;;;7.30;85.00;;;;;;4990839;28;20022;-59
2022/12/06 08:44:02;;;;;;;1.52;1.30;;;7.20;84.90;;;;;;4988610;28;20105;-58
2022/12/06 08:46:29;;;;;;;0.98;0.88;;;7.20;84.90;;;;;;4990292;28;20066;-58
2022/12/06 08:48:55;;;;;;;0.75;0.75;;;7.10;84.90;;;;;;4989485;28;20031;-60
2022/12/06 08:51:20;;;;;;;3.85;0.95;;;7.10;85.00;;;;;;4989746;28;20106;-59
2022/12/06 08:53:46;;;;;;;0.90;0.73;;;7.10;85.00;;;;;;4990336;28;20057;-59
2022/12/06 08:56:12;;;;;;;1.02;0.93;;;7.10;85.00;;;;;;4989025;28;20510;-59
2022/12/06 08:58:38;;;;;;;0.63;0.63;;;7.00;85.00;;;;;;4990423;28;20085;-58
2022/12/06 09:01:18;;;;;;;2.28;1.20;;;7.00;85.00;;;;;;4989998;28;20022;-59
2022/12/06 09:03:44;;;;;;;0.93;0.90;;;7.00;85.00;;;;;;4987806;28;20026;-58
2022/12/06 09:06:09;;;;;;;2.53;1.30;;;7.00;85.10;;;;;;5021688;28;20459;-58
2022/12/06 09:08:36;;;;;;;0.88;0.75;;;7.10;85.00;;;;;;4990844;28;20042;-58
2022/12/06 09:11:02;;;;;;;2.58;1.58;;;7.00;84.90;;;;;;4986959;28;20032;-58
2022/12/06 09:13:28;;;;;;;1.88;0.85;;;7.10;84.90;;;;;;4989967;28;20036;-58
2022/12/06 09:15:54;;;;;;;2.25;0.95;;;7.00;84.90;;;;;;4988262;28;20038;-59
2022/12/06 09:18:20;;;;;;;1.17;1.02;;;7.00;85.00;;;;;;4989794;28;20038;-58
2022/12/06 09:20:45;;;;;;;1.52;0.98;;;7.00;85.00;;;;;;4987124;28;20031;-58
2022/12/06 09:23:11;;;;;;;1.13;0.93;;;7.10;85.10;;;;;;4988798;28;20505;-58
2022/12/06 09:25:39;;;;;;;1.13;0.93;;;7.10;85.00;;;;;;4981635;28;20029;-59
2022/12/06 09:28:05;;;;;;;1.45;0.88;;;7.10;85.00;;;;;;4989763;28;20401;-58
2022/12/06 09:30:31;;;;;;;1.38;0.90;;;7.20;85.00;;;;;;4988347;28;20049;-59
2022/12/06 09:32:56;;;;;;;2.08;0.73;;;7.20;84.90;;;;;;4988795;28;20041;-58
2022/12/06 09:35:23;;;;;;;1.75;0.93;;;7.30;84.90;;;;;;4989240;28;20493;-58
2022/12/06 09:37:49;;;;;;;1.98;1.02;;;7.30;84.80;;;;;;4988987;28;20042;-58
2022/12/06 09:40:32;;;;;;;1.90;0.98;;;7.40;84.70;;;;;;4986432;28;20034;-58
2022/12/06 09:43:33;;;;;;;0.68;0.47;;;7.40;84.60;;;;;;4988714;28;20038;-58
2022/12/06 09:46:21;;;;;;;2.65;0.70;;;7.30;84.70;;;;;;4964646;28;20124;-58
2022/12/06 09:49:21;;;;;;;1.75;1.05;;;7.30;84.60;;;;;;4986140;28;20018;-58
2022/12/06 09:52:01;;;;;;;2.08;1.08;;;7.40;84.60;;;;;;4971998;28;20046;-58
2022/12/06 09:54:59;;;;;;;1.70;0.98;;;7.40;84.70;;;;;;4998589;28;20093;-58
2022/12/06 09:57:44;;;;;;;1.23;1.05;;;7.40;84.60;;;;;;4987759;28;20087;-58
2022/12/06 10:00:19;;;;;;;1.23;0.73;;;7.40;84.60;;;;;;4993442;28;20378;-58
2022/12/06 10:03:06;;;;;;;0.93;0.70;;;7.50;84.60;;;;;;4992229;28;20038;-58
2022/12/06 10:05:54;;;;;;;1.42;0.95;;;7.60;84.60;;;;;;4993451;28;20124;-58
2022/12/06 10:08:57;;;;;;;0.52;0.50;;;7.70;84.20;;;;;;4994572;28;20062;-58
2022/12/06 10:11:39;;;;;;;3.85;0.68;;;7.80;84.00;;;;;;4991208;28;20018;-62
2022/12/06 10:14:20;;;;;;;1.05;0.95;;;7.80;84.20;;;;;;4992079;28;20058;-62
2022/12/06 10:17:01;;;;;;;0.57;0.50;;;8.10;84.90;;;;;;4993009;28;20374;-63
2022/12/06 10:19:47;;;;;;;1.35;0.60;;;9.30;83.30;;;;;;5024728;28;20125;-63
2022/12/06 10:22:37;;;;;;;1.58;1.13;;;10.80;79.10;;;;;;4991553;28;20084;-63
2022/12/06 10:25:06;;;;;;;3.17;1.10;;;12.10;75.60;;;;;;4991469;28;20035;-64
2022/12/06 10:27:34;;;;;;;1.40;0.63;;;12.90;72.90;;;;;;4992878;28;20085;-63
2022/12/06 10:30:08;;;;;;;1.17;0.65;;;13.40;71.20;;;;;;4991107;28;20109;-63
2022/12/06 10:32:37;;;;;;;1.17;0.55;;;13.50;70.30;;;;;;4991690;28;20431;-63
2022/12/06 10:36:01;;;;;;;3.05;0.93;;;13.10;70.80;;;;;;4994900;28;20037;-64
2022/12/06 10:38:50;;;;;;;2.38;1.02;;;12.70;71.60;;;;;;4921449;29;20155;-63
2022/12/06 10:41:35;;;;;;;0.40;0.40;;;12.40;72.30;;;;;;4925241;29;20028;-63
2022/12/06 10:44:26;;;;;;;0.52;0.50;;;12.00;72.80;;;;;;4975666;28;20085;-63
2022/12/06 10:47:07;;;;;;;4.45;1.10;;;11.80;72.80;;;;;;4991163;28;20174;-63
2022/12/06 10:49:58;;;;;;;1.75;0.60;;;11.90;73.60;;;;;;4988548;28;20564;-63
2022/12/06 10:52:42;;;;;;;1.30;0.70;;;12.20;72.60;;;;;;4993334;28;20077;-63
2022/12/06 10:55:08;;;;;;;0.40;0.40;;;12.40;72.00;;;;;;4991067;28;20084;-63
2022/12/06 10:57:46;;;;;;;0.57;0.57;;;12.40;71.50;;;;;;4991038;28;20054;-63
2022/12/06 11:03:15;;;;;;;0.82;0.57;;;14.80;68.40;;;;;;3020164;22;20066;-56
2022/12/06 11:05:42;;;;;;;0.50;0.50;;;16.90;61.80;;;;;;4990924;28;20081;-56
2022/12/06 11:08:16;;;;;;;1.08;0.60;;;17.80;58.90;;;;;;4990581;28;20392;-58
2022/12/06 11:10:45;;;;;;;0.60;0.52;;;17.80;58.80;;;;;;4969676;28;20112;-59
2022/12/06 11:13:26;;;;;;;0.75;0.47;;;18.10;58.40;;;;;;4971371;28;20038;-57
2022/12/06 11:16:10;;;;;;;0.60;0.60;;;19.10;55.90;;;;;;4986815;28;20073;-59
2022/12/06 11:41:58;;;;;;;1.48;0.40;;;26.50;39.00;;;;;;4305615;26;20062;-59
2022/12/06 11:44:41;;;;;;;0.40;0.40;;;24.80;40.00;;;;;;4962527;28;20046;-59
2022/12/06 11:47:10;;;;;;;0.60;0.40;;;22.00;42.90;;;;;;4972972;28;20025;-58
2022/12/06 11:49:42;;;;;;;0.40;0.40;;;19.70;47.00;;;;;;4970495;28;20023;-58
2022/12/06 11:52:17;;;;;;;;;;;17.90;50.40;;;;;;4972988;28;20034;-59
2022/12/06 11:54:53;;;;;;;0.50;0.50;;;16.40;52.40;;;;;;4964084;28;19981;-58
2022/12/06 11:57:28;;;;;;;0.65;0.40;;;15.10;55.50;;;;;;4971494;28;20023;-61
2022/12/06 12:00:17;;;;;;;0.65;0.40;;;14.10;57.40;;;;;;4971304;28;20118;-60
2022/12/06 12:02:45;;;;;;;3.20;1.23;;;13.50;59.00;;;;;;4969857;28;20085;-58
2022/12/06 12:05:21;;;;;;;0.32;0.30;;;13.00;59.90;;;;;;4969610;28;20019;-60
2022/12/06 12:07:55;;;;;;;0.65;0.55;;;12.70;60.20;;;;;;4959546;28;20502;-60
2022/12/06 12:10:23;;;;;;;0.30;0.30;;;12.60;60.40;;;;;;4957708;28;20082;-60
2022/12/06 12:15:38;;;;;;;0.65;0.65;;;12.10;61.80;;;;;;4968192;28;20098;-58
2022/12/06 12:18:18;;;;;;;1.70;0.60;;;11.80;62.00;;;;;;4970781;28;20041;-60
2022/12/06 12:20:45;;;;;;;0.52;0.52;;;11.90;62.90;;;;;;4967367;28;20059;-60
2022/12/06 12:23:17;;;;;;;1.48;0.50;;;12.70;62.10;;;;;;4970226;28;20106;-58
2022/12/06 12:42:35;;;;;;;0.30;0.30;;;11.90;60.90;;;;;;4965588;28;20038;-60
2022/12/06 12:45:04;;;;;;;1.15;0.63;;;11.40;62.50;;;;;;4961840;28;20394;-58
2022/12/06 12:47:31;;;;;;;0.75;0.47;;;11.20;63.30;;;;;;4966667;28;20014;-57
2022/12/06 12:50:17;;;;;;;1.33;0.50;;;11.00;63.80;;;;;;4970177;28;20067;-59
2022/12/06 12:52:43;;;;;;;0.95;0.50;;;10.90;64.10;;;;;;4968633;28;20030;-60
2022/12/06 12:55:16;;;;;;;0.68;0.55;;;10.70;64.60;;;;;;4969993;28;20093;-58
2022/12/06 12:57:45;;;;;;;0.77;0.60;;;10.60;65.50;;;;;;4970193;28;20477;-58
2022/12/06 13:00:18;;;;;;;1.10;0.65;;;10.60;65.20;;;;;;4967200;28;20054;-57
2022/12/06 13:02:52;;;;;;;1.58;0.52;;;10.60;65.20;;;;;;4963680;28;20035;-58
2022/12/06 13:05:29;;;;;;;0.82;0.47;;;10.60;65.30;;;;;;4967899;28;20026;-60
2022/12/06 13:08:04;;;;;;;0.30;0.30;;;10.70;65.30;;;;;;4963524;28;20030;-59
2022/12/06 13:10:33;;;;;;;1.67;0.85;;;10.90;65.10;;;;;;4968465;28;20059;-57
2022/12/06 13:13:15;;;;;;;0.68;0.50;;;11.00;64.80;;;;;;4970038;28;20031;-58
2022/12/06 13:15:46;;;;;;;1.35;0.75;;;11.10;64.40;;;;;;4967650;28;20358;-58
2022/12/06 13:18:23;;;;;;;0.50;0.50;;;11.10;64.30;;;;;;4969735;28;20380;-56
2022/12/06 13:20:51;;;;;;;0.95;0.68;;;11.00;64.50;;;;;;4960512;28;20054;-59
2022/12/06 13:23:25;;;;;;;1.15;0.50;;;11.00;64.80;;;;;;4974855;28;20031;-58
2022/12/06 13:26:05;;;;;;;0.35;0.28;;;11.00;64.80;;;;;;4968609;28;20027;-59
2022/12/06 13:28:38;;;;;;;1.20;0.68;;;11.20;64.80;;;;;;4968996;28;20035;-58
2022/12/06 13:31:10;;;;;;;1.15;0.70;;;11.10;63.90;;;;;;4969274;28;20081;-57
2022/12/06 13:33:43;;;;;;;1.05;0.82;;;10.90;64.10;;;;;;4969339;28;20476;-58
2022/12/06 13:36:12;;;;;;;0.90;0.63;;;10.60;64.70;;;;;;4965716;28;20111;-59
2022/12/06 13:38:41;;;;;;;0.65;0.40;;;10.50;65.00;;;;;;4969944;28;20126;-57
2022/12/06 13:42:16;;;;;;;0.55;0.52;;;10.50;65.50;;;;;;4930507;28;1149904;-58
2022/12/06 13:44:49;;;;;;;0.40;0.40;;;10.60;65.60;;;;;;4970403;28;20134;-59
2022/12/06 13:47:27;;;;;;;1.40;0.45;;;10.70;65.60;;;;;;4982335;28;20031;-57
2022/12/06 13:50:02;;;;;;;0.65;0.40;;;10.60;65.70;;;;;;4969405;28;20027;-59
2022/12/06 13:52:48;;;;;;;0.40;0.40;;;10.60;65.80;;;;;;4969766;28;20026;-58
2022/12/06 13:55:22;;;;;;;0.30;0.30;;;10.60;66.00;;;;;;4966480;28;20039;-59
2022/12/06 13:57:54;;;;;;;0.93;0.63;;;10.50;66.30;;;;;;4970694;28;20031;-59
2022/12/06 14:00:29;;;;;;;0.65;0.65;;;10.40;66.50;;;;;;4962012;28;20045;-58
2022/12/06 14:03:04;;;;;;;4.07;0.82;;;10.30;67.00;;;;;;4964332;28;20023;-59
2022/12/06 14:06:04;;;;;;;3.35;0.95;;;10.10;67.50;;;;;;4960930;28;20411;-60
2022/12/06 14:08:35;;;;;;;1.17;0.85;;;10.00;67.90;;;;;;4967235;28;20440;-58
2022/12/06 14:11:21;;;;;;;1.02;0.70;;;9.90;68.30;;;;;;4970233;28;20027;-60
2022/12/06 14:13:59;;;;;;;0.55;0.45;;;10.00;68.50;;;;;;4965323;28;20089;-59
2022/12/06 14:16:41;;;;;;;0.93;0.77;;;10.00;68.60;;;;;;4970415;28;20114;-59
2022/12/06 14:19:18;;;;;;;0.98;0.80;;;10.00;68.60;;;;;;4969759;28;20367;-59
2022/12/06 14:22:26;;;;;;;2.00;1.05;;;10.00;68.70;;;;;;4969877;28;20035;-59
2022/12/06 14:25:04;;;;;;;1.02;0.88;;;10.10;68.60;;;;;;4969269;28;20397;-60
2022/12/06 14:27:41;;;;;;;0.57;0.50;;;10.00;68.80;;;;;;4969937;28;20019;-57
2022/12/06 14:30:13;;;;;;;0.95;0.75;;;10.10;69.00;;;;;;4970335;28;20293;-57